sensor_id;sensor_type;location;lat;lon;timestamp;P1;durP1;ratioP1;P2;durP2;ratioP2
73678;SDS011;61978;52.742;16.962;2023-07-16T00:02:16;7.20;;;3.60;;
73678;SDS011;61978;52.742;16.962;2023-07-16T00:04:42;6.90;;;3.20;;
73678;SDS011;61978;52.742;16.962;2023-07-16T00:07:07;5.10;;;3.90;;
73678;SDS011;61978;52.742;16.962;2023-07-16T00:09:35;4.00;;;3.60;;
73678;SDS011;61978;52.742;16.962;2023-07-16T00:12:00;6.50;;;3.80;;
73678;SDS011;61978;52.742;16.962;2023-07-16T00:14:27;4.10;;;3.50;;
73678;SDS011;61978;52.742;16.962;2023-07-16T00:16:53;8.00;;;3.50;;
73678;SDS011;61978;52.742;16.962;2023-07-16T00:19:19;8.50;;;3.90;;
73678;SDS011;61978;52.742;16.962;2023-07-16T00:21:44;7.30;;;3.30;;
73678;SDS011;61978;52.742;16.962;2023-07-16T00:24:10;7.30;;;3.50;;
73678;SDS011;61978;52.742;16.962;2023-07-16T00:26:36;7.80;;;3.60;;
73678;SDS011;61978;52.742;16.962;2023-07-16T00:29:01;10.50;;;3.90;;
73678;SDS011;61978;52.742;16.962;2023-07-16T00:31:27;4.70;;;3.80;;
73678;SDS011;61978;52.742;16.962;2023-07-16T00:33:53;6.10;;;3.60;;
73678;SDS011;61978;52.742;16.962;2023-07-16T00:36:19;5.60;;;3.30;;
73678;SDS011;61978;52.742;16.962;2023-07-16T00:38:46;7.60;;;3.70;;
73678;SDS011;61978;52.742;16.962;2023-07-16T00:41:13;5.50;;;3.80;;
73678;SDS011;61978;52.742;16.962;2023-07-16T00:43:39;5.80;;;3.50;;
73678;SDS011;61978;52.742;16.962;2023-07-16T00:46:05;7.20;;;3.80;;
73678;SDS011;61978;52.742;16.962;2023-07-16T00:48:31;6.20;;;3.60;;
73678;SDS011;61978;52.742;16.962;2023-07-16T00:50:56;4.80;;;3.60;;
73678;SDS011;61978;52.742;16.962;2023-07-16T00:53:22;10.70;;;3.70;;
73678;SDS011;61978;52.742;16.962;2023-07-16T00:55:48;6.50;;;3.80;;
73678;SDS011;61978;52.742;16.962;2023-07-16T00:58:14;11.90;;;3.60;;
73678;SDS011;61978;52.742;16.962;2023-07-16T01:00:40;6.20;;;3.50;;
73678;SDS011;61978;52.742;16.962;2023-07-16T01:03:07;4.30;;;3.20;;
73678;SDS011;61978;52.742;16.962;2023-07-16T01:05:38;7.50;;;3.70;;
73678;SDS011;61978;52.742;16.962;2023-07-16T01:08:06;6.50;;;3.20;;
73678;SDS011;61978;52.742;16.962;2023-07-16T01:10:32;6.70;;;3.60;;
73678;SDS011;61978;52.742;16.962;2023-07-16T01:12:59;6.90;;;3.90;;
73678;SDS011;61978;52.742;16.962;2023-07-16T01:15:25;4.50;;;3.30;;
73678;SDS011;61978;52.742;16.962;2023-07-16T01:17:51;5.70;;;3.50;;
73678;SDS011;61978;52.742;16.962;2023-07-16T01:20:17;8.90;;;3.70;;
73678;SDS011;61978;52.742;16.962;2023-07-16T01:25:18;4.80;;;3.20;;
73678;SDS011;61978;52.742;16.962;2023-07-16T01:27:59;5.80;;;3.20;;
73678;SDS011;61978;52.742;16.962;2023-07-16T01:30:28;6.80;;;3.40;;
73678;SDS011;61978;52.742;16.962;2023-07-16T01:32:55;4.90;;;3.30;;
73678;SDS011;61978;52.742;16.962;2023-07-16T01:35:22;45.90;;;6.60;;
73678;SDS011;61978;52.742;16.962;2023-07-16T01:37:48;7.70;;;3.60;;
73678;SDS011;61978;52.742;16.962;2023-07-16T01:40:14;9.30;;;4.00;;
73678;SDS011;61978;52.742;16.962;2023-07-16T01:42:39;4.10;;;3.60;;
73678;SDS011;61978;52.742;16.962;2023-07-16T01:45:05;5.80;;;3.40;;
73678;SDS011;61978;52.742;16.962;2023-07-16T01:48:22;4.20;;;3.20;;
73678;SDS011;61978;52.742;16.962;2023-07-16T01:50:17;6.50;;;3.70;;
73678;SDS011;61978;52.742;16.962;2023-07-16T01:52:43;5.80;;;3.50;;
73678;SDS011;61978;52.742;16.962;2023-07-16T01:55:09;9.50;;;3.80;;
73678;SDS011;61978;52.742;16.962;2023-07-16T01:57:35;4.40;;;3.80;;
73678;SDS011;61978;52.742;16.962;2023-07-16T02:00:00;6.50;;;3.90;;
73678;SDS011;61978;52.742;16.962;2023-07-16T02:02:26;7.10;;;3.80;;
73678;SDS011;61978;52.742;16.962;2023-07-16T02:04:52;3.90;;;3.20;;
73678;SDS011;61978;52.742;16.962;2023-07-16T02:07:17;8.50;;;3.40;;
73678;SDS011;61978;52.742;16.962;2023-07-16T02:09:43;5.50;;;3.40;;
73678;SDS011;61978;52.742;16.962;2023-07-16T02:12:09;10.40;;;3.60;;
73678;SDS011;61978;52.742;16.962;2023-07-16T02:14:34;7.10;;;3.80;;
73678;SDS011;61978;52.742;16.962;2023-07-16T02:17:00;6.40;;;3.70;;
73678;SDS011;61978;52.742;16.962;2023-07-16T02:19:26;8.40;;;3.50;;
73678;SDS011;61978;52.742;16.962;2023-07-16T02:21:52;6.00;;;3.60;;
73678;SDS011;61978;52.742;16.962;2023-07-16T02:24:17;12.20;;;3.70;;
73678;SDS011;61978;52.742;16.962;2023-07-16T02:26:43;11.60;;;4.10;;
73678;SDS011;61978;52.742;16.962;2023-07-16T02:29:10;9.10;;;3.80;;
73678;SDS011;61978;52.742;16.962;2023-07-16T02:31:37;5.80;;;3.50;;
73678;SDS011;61978;52.742;16.962;2023-07-16T02:34:03;5.10;;;3.30;;
73678;SDS011;61978;52.742;16.962;2023-07-16T02:36:31;4.40;;;3.40;;
73678;SDS011;61978;52.742;16.962;2023-07-16T02:38:57;4.40;;;3.40;;
73678;SDS011;61978;52.742;16.962;2023-07-16T02:41:23;5.30;;;4.00;;
73678;SDS011;61978;52.742;16.962;2023-07-16T02:43:58;5.80;;;3.90;;
73678;SDS011;61978;52.742;16.962;2023-07-16T02:46:24;5.70;;;3.80;;
73678;SDS011;61978;52.742;16.962;2023-07-16T02:48:49;7.60;;;3.90;;
73678;SDS011;61978;52.742;16.962;2023-07-16T02:51:15;8.30;;;3.80;;
73678;SDS011;61978;52.742;16.962;2023-07-16T02:53:40;5.60;;;3.60;;
73678;SDS011;61978;52.742;16.962;2023-07-16T02:56:06;8.60;;;3.90;;
73678;SDS011;61978;52.742;16.962;2023-07-16T02:58:32;3.90;;;3.20;;
73678;SDS011;61978;52.742;16.962;2023-07-16T03:00:59;7.40;;;3.50;;
73678;SDS011;61978;52.742;16.962;2023-07-16T03:03:25;5.40;;;4.00;;
73678;SDS011;61978;52.742;16.962;2023-07-16T03:05:50;7.20;;;4.10;;
73678;SDS011;61978;52.742;16.962;2023-07-16T03:08:16;5.00;;;3.30;;
73678;SDS011;61978;52.742;16.962;2023-07-16T03:10:42;7.60;;;4.00;;
73678;SDS011;61978;52.742;16.962;2023-07-16T03:13:09;4.80;;;3.80;;
73678;SDS011;61978;52.742;16.962;2023-07-16T03:15:35;3.80;;;3.40;;
73678;SDS011;61978;52.742;16.962;2023-07-16T03:18:00;9.80;;;4.00;;
73678;SDS011;61978;52.742;16.962;2023-07-16T03:20:26;8.50;;;3.80;;
73678;SDS011;61978;52.742;16.962;2023-07-16T03:22:53;5.50;;;4.30;;
73678;SDS011;61978;52.742;16.962;2023-07-16T03:25:19;4.20;;;3.40;;
73678;SDS011;61978;52.742;16.962;2023-07-16T03:27:45;5.00;;;4.10;;
73678;SDS011;61978;52.742;16.962;2023-07-16T03:30:11;5.60;;;4.10;;
73678;SDS011;61978;52.742;16.962;2023-07-16T03:32:36;4.30;;;3.80;;
73678;SDS011;61978;52.742;16.962;2023-07-16T03:35:02;5.10;;;3.80;;
73678;SDS011;61978;52.742;16.962;2023-07-16T03:37:28;7.10;;;3.70;;
73678;SDS011;61978;52.742;16.962;2023-07-16T03:39:53;4.80;;;3.90;;
73678;SDS011;61978;52.742;16.962;2023-07-16T03:42:19;5.10;;;3.90;;
73678;SDS011;61978;52.742;16.962;2023-07-16T03:44:47;9.80;;;4.00;;
73678;SDS011;61978;52.742;16.962;2023-07-16T03:47:13;6.80;;;3.90;;
73678;SDS011;61978;52.742;16.962;2023-07-16T03:49:39;6.40;;;3.90;;
73678;SDS011;61978;52.742;16.962;2023-07-16T03:52:05;6.70;;;3.40;;
73678;SDS011;61978;52.742;16.962;2023-07-16T03:54:31;4.70;;;3.60;;
73678;SDS011;61978;52.742;16.962;2023-07-16T03:56:56;5.70;;;3.70;;
73678;SDS011;61978;52.742;16.962;2023-07-16T03:59:23;6.90;;;3.90;;
73678;SDS011;61978;52.742;16.962;2023-07-16T04:01:49;7.30;;;3.90;;
73678;SDS011;61978;52.742;16.962;2023-07-16T04:04:14;6.50;;;3.90;;
73678;SDS011;61978;52.742;16.962;2023-07-16T04:06:40;5.40;;;3.80;;
73678;SDS011;61978;52.742;16.962;2023-07-16T04:09:06;4.20;;;3.80;;
73678;SDS011;61978;52.742;16.962;2023-07-16T04:11:32;5.60;;;4.10;;
73678;SDS011;61978;52.742;16.962;2023-07-16T04:13:58;7.20;;;3.80;;
73678;SDS011;61978;52.742;16.962;2023-07-16T04:16:23;8.90;;;4.30;;
73678;SDS011;61978;52.742;16.962;2023-07-16T04:18:49;5.30;;;3.90;;
73678;SDS011;61978;52.742;16.962;2023-07-16T04:21:15;7.00;;;3.70;;
73678;SDS011;61978;52.742;16.962;2023-07-16T04:23:41;7.00;;;4.00;;
73678;SDS011;61978;52.742;16.962;2023-07-16T04:26:07;11.40;;;4.50;;
73678;SDS011;61978;52.742;16.962;2023-07-16T04:28:32;7.40;;;3.30;;
73678;SDS011;61978;52.742;16.962;2023-07-16T04:30:58;7.60;;;3.80;;
73678;SDS011;61978;52.742;16.962;2023-07-16T04:33:23;4.30;;;3.70;;
73678;SDS011;61978;52.742;16.962;2023-07-16T04:35:49;9.20;;;3.70;;
73678;SDS011;61978;52.742;16.962;2023-07-16T04:38:15;7.80;;;3.70;;
73678;SDS011;61978;52.742;16.962;2023-07-16T04:40:41;7.40;;;3.90;;
73678;SDS011;61978;52.742;16.962;2023-07-16T04:43:07;4.40;;;3.50;;
73678;SDS011;61978;52.742;16.962;2023-07-16T04:45:33;6.90;;;3.40;;
73678;SDS011;61978;52.742;16.962;2023-07-16T04:48:00;3.90;;;2.90;;
73678;SDS011;61978;52.742;16.962;2023-07-16T04:50:25;4.10;;;3.20;;
73678;SDS011;61978;52.742;16.962;2023-07-16T04:52:51;4.10;;;2.60;;
73678;SDS011;61978;52.742;16.962;2023-07-16T04:55:17;6.10;;;3.20;;
73678;SDS011;61978;52.742;16.962;2023-07-16T04:57:42;5.40;;;3.20;;
73678;SDS011;61978;52.742;16.962;2023-07-16T05:00:08;6.20;;;2.80;;
73678;SDS011;61978;52.742;16.962;2023-07-16T05:02:34;6.30;;;2.80;;
73678;SDS011;61978;52.742;16.962;2023-07-16T05:04:59;8.60;;;3.50;;
73678;SDS011;61978;52.742;16.962;2023-07-16T05:07:25;3.50;;;2.20;;
73678;SDS011;61978;52.742;16.962;2023-07-16T05:09:50;3.10;;;2.60;;
73678;SDS011;61978;52.742;16.962;2023-07-16T05:12:16;6.20;;;2.70;;
73678;SDS011;61978;52.742;16.962;2023-07-16T05:14:42;4.30;;;2.30;;
73678;SDS011;61978;52.742;16.962;2023-07-16T05:17:08;4.10;;;2.40;;
73678;SDS011;61978;52.742;16.962;2023-07-16T05:19:34;2.20;;;1.80;;
73678;SDS011;61978;52.742;16.962;2023-07-16T05:22:00;4.00;;;2.60;;
73678;SDS011;61978;52.742;16.962;2023-07-16T05:24:26;5.80;;;2.90;;
73678;SDS011;61978;52.742;16.962;2023-07-16T05:26:51;4.40;;;2.00;;
73678;SDS011;61978;52.742;16.962;2023-07-16T05:29:19;2.30;;;1.70;;
73678;SDS011;61978;52.742;16.962;2023-07-16T05:31:45;5.60;;;2.40;;
73678;SDS011;61978;52.742;16.962;2023-07-16T05:34:11;4.20;;;1.90;;
73678;SDS011;61978;52.742;16.962;2023-07-16T05:36:37;4.90;;;1.90;;
73678;SDS011;61978;52.742;16.962;2023-07-16T05:39:03;3.90;;;2.20;;
73678;SDS011;61978;52.742;16.962;2023-07-16T05:41:28;2.50;;;2.10;;
73678;SDS011;61978;52.742;16.962;2023-07-16T05:43:54;2.40;;;2.10;;
73678;SDS011;61978;52.742;16.962;2023-07-16T05:46:20;1.40;;;1.30;;
73678;SDS011;61978;52.742;16.962;2023-07-16T05:48:45;2.90;;;2.30;;
73678;SDS011;61978;52.742;16.962;2023-07-16T05:51:11;2.50;;;2.10;;
73678;SDS011;61978;52.742;16.962;2023-07-16T05:53:36;2.50;;;2.20;;
73678;SDS011;61978;52.742;16.962;2023-07-16T05:56:02;4.10;;;2.20;;
73678;SDS011;61978;52.742;16.962;2023-07-16T05:58:28;5.80;;;1.80;;
73678;SDS011;61978;52.742;16.962;2023-07-16T06:00:56;2.00;;;1.80;;
73678;SDS011;61978;52.742;16.962;2023-07-16T06:03:23;3.10;;;2.10;;
73678;SDS011;61978;52.742;16.962;2023-07-16T06:05:49;6.10;;;1.80;;
73678;SDS011;61978;52.742;16.962;2023-07-16T06:08:14;1.90;;;1.60;;
73678;SDS011;61978;52.742;16.962;2023-07-16T06:10:40;2.10;;;1.80;;
73678;SDS011;61978;52.742;16.962;2023-07-16T06:13:08;2.00;;;1.30;;
73678;SDS011;61978;52.742;16.962;2023-07-16T06:15:36;3.40;;;1.70;;
73678;SDS011;61978;52.742;16.962;2023-07-16T06:18:02;2.30;;;1.90;;
73678;SDS011;61978;52.742;16.962;2023-07-16T06:20:27;6.20;;;2.20;;
73678;SDS011;61978;52.742;16.962;2023-07-16T06:22:54;4.90;;;2.40;;
73678;SDS011;61978;52.742;16.962;2023-07-16T06:25:19;1.20;;;1.10;;
73678;SDS011;61978;52.742;16.962;2023-07-16T06:27:45;2.40;;;2.10;;
73678;SDS011;61978;52.742;16.962;2023-07-16T06:30:11;2.20;;;2.00;;
73678;SDS011;61978;52.742;16.962;2023-07-16T06:32:40;2.70;;;1.40;;
73678;SDS011;61978;52.742;16.962;2023-07-16T06:35:06;4.50;;;2.10;;
73678;SDS011;61978;52.742;16.962;2023-07-16T06:37:31;1.90;;;1.50;;
73678;SDS011;61978;52.742;16.962;2023-07-16T06:39:57;2.90;;;1.60;;
73678;SDS011;61978;52.742;16.962;2023-07-16T06:42:23;1.90;;;1.70;;
73678;SDS011;61978;52.742;16.962;2023-07-16T06:44:48;2.60;;;1.50;;
73678;SDS011;61978;52.742;16.962;2023-07-16T06:47:14;4.60;;;2.90;;
73678;SDS011;61978;52.742;16.962;2023-07-16T06:49:41;1.90;;;1.70;;
73678;SDS011;61978;52.742;16.962;2023-07-16T06:52:06;5.30;;;1.80;;
73678;SDS011;61978;52.742;16.962;2023-07-16T06:54:32;3.40;;;2.00;;
73678;SDS011;61978;52.742;16.962;2023-07-16T06:56:58;2.00;;;1.60;;
73678;SDS011;61978;52.742;16.962;2023-07-16T06:59:24;2.30;;;1.70;;
73678;SDS011;61978;52.742;16.962;2023-07-16T07:01:49;1.80;;;1.60;;
73678;SDS011;61978;52.742;16.962;2023-07-16T07:04:15;1.90;;;1.80;;
73678;SDS011;61978;52.742;16.962;2023-07-16T07:06:41;2.60;;;1.70;;
73678;SDS011;61978;52.742;16.962;2023-07-16T07:09:07;2.40;;;1.70;;
73678;SDS011;61978;52.742;16.962;2023-07-16T07:11:32;1.50;;;1.40;;
73678;SDS011;61978;52.742;16.962;2023-07-16T07:13:58;2.10;;;1.50;;
73678;SDS011;61978;52.742;16.962;2023-07-16T07:16:24;2.20;;;1.70;;
73678;SDS011;61978;52.742;16.962;2023-07-16T07:18:49;2.30;;;1.70;;
73678;SDS011;61978;52.742;16.962;2023-07-16T07:21:15;1.80;;;1.60;;
73678;SDS011;61978;52.742;16.962;2023-07-16T07:23:41;3.40;;;1.50;;
73678;SDS011;61978;52.742;16.962;2023-07-16T07:26:07;2.40;;;1.30;;
73678;SDS011;61978;52.742;16.962;2023-07-16T07:28:33;1.80;;;1.40;;
73678;SDS011;61978;52.742;16.962;2023-07-16T07:30:59;2.00;;;1.20;;
73678;SDS011;61978;52.742;16.962;2023-07-16T07:33:24;2.30;;;0.80;;
73678;SDS011;61978;52.742;16.962;2023-07-16T07:35:52;2.60;;;1.10;;
73678;SDS011;61978;52.742;16.962;2023-07-16T07:38:18;2.10;;;0.90;;
73678;SDS011;61978;52.742;16.962;2023-07-16T07:40:44;1.60;;;1.10;;
73678;SDS011;61978;52.742;16.962;2023-07-16T07:43:13;1.70;;;0.80;;
73678;SDS011;61978;52.742;16.962;2023-07-16T07:45:41;4.10;;;1.00;;
73678;SDS011;61978;52.742;16.962;2023-07-16T07:48:10;1.50;;;1.40;;
73678;SDS011;61978;52.742;16.962;2023-07-16T07:50:36;2.30;;;1.10;;
73678;SDS011;61978;52.742;16.962;2023-07-16T07:53:02;1.20;;;1.10;;
73678;SDS011;61978;52.742;16.962;2023-07-16T07:55:28;1.60;;;1.30;;
73678;SDS011;61978;52.742;16.962;2023-07-16T07:57:53;4.90;;;1.50;;
73678;SDS011;61978;52.742;16.962;2023-07-16T08:00:19;2.90;;;1.60;;
73678;SDS011;61978;52.742;16.962;2023-07-16T08:02:45;3.20;;;1.50;;
73678;SDS011;61978;52.742;16.962;2023-07-16T08:05:11;2.50;;;1.30;;
73678;SDS011;61978;52.742;16.962;2023-07-16T08:07:36;3.30;;;1.50;;
73678;SDS011;61978;52.742;16.962;2023-07-16T08:10:02;3.00;;;1.40;;
73678;SDS011;61978;52.742;16.962;2023-07-16T08:12:28;2.30;;;1.70;;
73678;SDS011;61978;52.742;16.962;2023-07-16T08:14:53;2.10;;;1.60;;
73678;SDS011;61978;52.742;16.962;2023-07-16T08:17:19;2.00;;;1.40;;
73678;SDS011;61978;52.742;16.962;2023-07-16T08:19:48;1.40;;;1.30;;
73678;SDS011;61978;52.742;16.962;2023-07-16T08:22:13;5.10;;;1.50;;
73678;SDS011;61978;52.742;16.962;2023-07-16T08:24:39;1.70;;;1.50;;
73678;SDS011;61978;52.742;16.962;2023-07-16T08:27:04;8.70;;;2.10;;
73678;SDS011;61978;52.742;16.962;2023-07-16T08:29:30;2.50;;;1.70;;
73678;SDS011;61978;52.742;16.962;2023-07-16T08:31:56;4.20;;;2.10;;
73678;SDS011;61978;52.742;16.962;2023-07-16T08:34:22;5.70;;;1.70;;
73678;SDS011;61978;52.742;16.962;2023-07-16T08:36:48;3.30;;;2.00;;
73678;SDS011;61978;52.742;16.962;2023-07-16T08:39:13;2.70;;;2.10;;
73678;SDS011;61978;52.742;16.962;2023-07-16T08:41:40;3.90;;;1.90;;
73678;SDS011;61978;52.742;16.962;2023-07-16T08:44:12;4.90;;;2.10;;
73678;SDS011;61978;52.742;16.962;2023-07-16T08:46:41;5.30;;;1.90;;
73678;SDS011;61978;52.742;16.962;2023-07-16T08:49:07;4.50;;;1.90;;
73678;SDS011;61978;52.742;16.962;2023-07-16T08:51:33;8.30;;;2.30;;
73678;SDS011;61978;52.742;16.962;2023-07-16T08:53:59;2.20;;;2.00;;
73678;SDS011;61978;52.742;16.962;2023-07-16T08:56:26;3.40;;;1.90;;
73678;SDS011;61978;52.742;16.962;2023-07-16T08:58:54;2.80;;;2.10;;
73678;SDS011;61978;52.742;16.962;2023-07-16T09:01:21;2.10;;;2.00;;
73678;SDS011;61978;52.742;16.962;2023-07-16T09:03:46;4.40;;;2.00;;
73678;SDS011;61978;52.742;16.962;2023-07-16T09:06:12;1.90;;;1.80;;
73678;SDS011;61978;52.742;16.962;2023-07-16T09:08:37;3.90;;;2.30;;
73678;SDS011;61978;52.742;16.962;2023-07-16T09:11:03;5.30;;;2.10;;
73678;SDS011;61978;52.742;16.962;2023-07-16T09:13:29;3.30;;;1.90;;
73678;SDS011;61978;52.742;16.962;2023-07-16T09:15:56;4.30;;;2.00;;
73678;SDS011;61978;52.742;16.962;2023-07-16T09:18:22;6.30;;;2.10;;
73678;SDS011;61978;52.742;16.962;2023-07-16T09:20:58;6.80;;;2.40;;
73678;SDS011;61978;52.742;16.962;2023-07-16T09:23:25;2.50;;;2.30;;
73678;SDS011;61978;52.742;16.962;2023-07-16T09:25:55;7.00;;;2.20;;
73678;SDS011;61978;52.742;16.962;2023-07-16T09:28:22;2.80;;;2.50;;
73678;SDS011;61978;52.742;16.962;2023-07-16T09:30:49;2.50;;;1.90;;
73678;SDS011;61978;52.742;16.962;2023-07-16T09:33:16;4.50;;;2.10;;
73678;SDS011;61978;52.742;16.962;2023-07-16T09:35:42;2.30;;;2.00;;
73678;SDS011;61978;52.742;16.962;2023-07-16T09:38:08;3.10;;;2.00;;
73678;SDS011;61978;52.742;16.962;2023-07-16T09:40:39;3.40;;;2.10;;
73678;SDS011;61978;52.742;16.962;2023-07-16T09:43:08;2.70;;;2.30;;
73678;SDS011;61978;52.742;16.962;2023-07-16T09:45:34;3.30;;;2.10;;
73678;SDS011;61978;52.742;16.962;2023-07-16T09:48:00;3.00;;;2.30;;
73678;SDS011;61978;52.742;16.962;2023-07-16T09:50:30;2.70;;;2.10;;
73678;SDS011;61978;52.742;16.962;2023-07-16T09:53:00;3.30;;;1.90;;
73678;SDS011;61978;52.742;16.962;2023-07-16T09:55:28;2.10;;;2.00;;
73678;SDS011;61978;52.742;16.962;2023-07-16T09:57:56;4.20;;;1.90;;
73678;SDS011;61978;52.742;16.962;2023-07-16T10:00:23;2.90;;;1.90;;
73678;SDS011;61978;52.742;16.962;2023-07-16T10:02:49;1.80;;;1.70;;
73678;SDS011;61978;52.742;16.962;2023-07-16T10:05:23;2.90;;;2.10;;
73678;SDS011;61978;52.742;16.962;2023-07-16T10:07:51;5.30;;;2.20;;
73678;SDS011;61978;52.742;16.962;2023-07-16T10:10:17;3.70;;;2.00;;
73678;SDS011;61978;52.742;16.962;2023-07-16T10:13:06;6.30;;;2.40;;
73678;SDS011;61978;52.742;16.962;2023-07-16T10:15:30;4.90;;;2.80;;
73678;SDS011;61978;52.742;16.962;2023-07-16T10:17:56;2.60;;;1.90;;
73678;SDS011;61978;52.742;16.962;2023-07-16T10:20:29;3.80;;;2.00;;
73678;SDS011;61978;52.742;16.962;2023-07-16T10:22:55;5.00;;;2.20;;
73678;SDS011;61978;52.742;16.962;2023-07-16T10:25:22;1.90;;;1.70;;
73678;SDS011;61978;52.742;16.962;2023-07-16T10:27:49;1.70;;;1.60;;
73678;SDS011;61978;52.742;16.962;2023-07-16T10:30:18;2.90;;;1.70;;
73678;SDS011;61978;52.742;16.962;2023-07-16T10:32:44;2.10;;;1.50;;
73678;SDS011;61978;52.742;16.962;2023-07-16T10:35:10;1.50;;;1.40;;
73678;SDS011;61978;52.742;16.962;2023-07-16T10:37:36;1.40;;;1.30;;
73678;SDS011;61978;52.742;16.962;2023-07-16T10:40:03;2.10;;;1.60;;
73678;SDS011;61978;52.742;16.962;2023-07-16T10:42:29;1.60;;;1.50;;
73678;SDS011;61978;52.742;16.962;2023-07-16T10:44:59;3.00;;;1.40;;
73678;SDS011;61978;52.742;16.962;2023-07-16T10:47:30;4.20;;;1.50;;
73678;SDS011;61978;52.742;16.962;2023-07-16T10:49:55;4.30;;;2.00;;
73678;SDS011;61978;52.742;16.962;2023-07-16T10:52:22;2.30;;;1.70;;
73678;SDS011;61978;52.742;16.962;2023-07-16T10:54:48;1.60;;;1.40;;
73678;SDS011;61978;52.742;16.962;2023-07-16T10:57:20;1.30;;;1.20;;
73678;SDS011;61978;52.742;16.962;2023-07-16T10:59:46;1.50;;;1.40;;
73678;SDS011;61978;52.742;16.962;2023-07-16T11:02:13;5.60;;;1.40;;
73678;SDS011;61978;52.742;16.962;2023-07-16T11:04:40;3.40;;;1.60;;
73678;SDS011;61978;52.742;16.962;2023-07-16T11:07:09;2.20;;;1.40;;
73678;SDS011;61978;52.742;16.962;2023-07-16T11:09:39;4.20;;;1.40;;
73678;SDS011;61978;52.742;16.962;2023-07-16T11:12:07;1.80;;;1.60;;
73678;SDS011;61978;52.742;16.962;2023-07-16T11:14:33;5.00;;;1.60;;
73678;SDS011;61978;52.742;16.962;2023-07-16T11:17:05;2.20;;;1.50;;
73678;SDS011;61978;52.742;16.962;2023-07-16T11:19:32;2.30;;;1.60;;
73678;SDS011;61978;52.742;16.962;2023-07-16T11:21:59;1.90;;;1.50;;
73678;SDS011;61978;52.742;16.962;2023-07-16T11:24:24;2.60;;;1.40;;
73678;SDS011;61978;52.742;16.962;2023-07-16T11:26:52;1.90;;;1.20;;
73678;SDS011;61978;52.742;16.962;2023-07-16T11:29:19;1.20;;;1.00;;
73678;SDS011;61978;52.742;16.962;2023-07-16T11:31:48;1.90;;;1.40;;
73678;SDS011;61978;52.742;16.962;2023-07-16T11:34:14;1.90;;;1.60;;
73678;SDS011;61978;52.742;16.962;2023-07-16T11:36:40;1.70;;;1.60;;
73678;SDS011;61978;52.742;16.962;2023-07-16T11:39:06;2.90;;;1.60;;
73678;SDS011;61978;52.742;16.962;2023-07-16T11:41:32;1.90;;;1.50;;
73678;SDS011;61978;52.742;16.962;2023-07-16T11:44:00;2.00;;;1.60;;
73678;SDS011;61978;52.742;16.962;2023-07-16T11:46:33;1.10;;;1.00;;
73678;SDS011;61978;52.742;16.962;2023-07-16T11:48:59;2.90;;;1.50;;
73678;SDS011;61978;52.742;16.962;2023-07-16T11:51:25;1.50;;;1.30;;
73678;SDS011;61978;52.742;16.962;2023-07-16T11:53:51;1.50;;;1.40;;
73678;SDS011;61978;52.742;16.962;2023-07-16T11:56:17;2.20;;;1.10;;
73678;SDS011;61978;52.742;16.962;2023-07-16T11:58:43;1.40;;;1.30;;
73678;SDS011;61978;52.742;16.962;2023-07-16T12:01:09;2.10;;;1.30;;
73678;SDS011;61978;52.742;16.962;2023-07-16T12:03:35;1.50;;;1.40;;
73678;SDS011;61978;52.742;16.962;2023-07-16T12:06:00;1.70;;;1.40;;
73678;SDS011;61978;52.742;16.962;2023-07-16T12:08:26;1.40;;;1.30;;
73678;SDS011;61978;52.742;16.962;2023-07-16T12:10:53;1.90;;;1.50;;
73678;SDS011;61978;52.742;16.962;2023-07-16T12:13:18;2.60;;;1.60;;
73678;SDS011;61978;52.742;16.962;2023-07-16T12:15:49;1.60;;;1.40;;
73678;SDS011;61978;52.742;16.962;2023-07-16T12:18:14;3.20;;;1.80;;
73678;SDS011;61978;52.742;16.962;2023-07-16T12:20:41;1.40;;;1.30;;
73678;SDS011;61978;52.742;16.962;2023-07-16T12:23:07;2.30;;;1.40;;
73678;SDS011;61978;52.742;16.962;2023-07-16T12:25:33;2.30;;;1.40;;
73678;SDS011;61978;52.742;16.962;2023-07-16T12:28:00;1.30;;;1.20;;
73678;SDS011;61978;52.742;16.962;2023-07-16T12:30:27;1.50;;;1.40;;
73678;SDS011;61978;52.742;16.962;2023-07-16T12:32:53;2.70;;;1.40;;
73678;SDS011;61978;52.742;16.962;2023-07-16T12:35:19;2.00;;;1.80;;
73678;SDS011;61978;52.742;16.962;2023-07-16T12:37:45;2.70;;;1.30;;
73678;SDS011;61978;52.742;16.962;2023-07-16T12:40:11;2.10;;;1.20;;
73678;SDS011;61978;52.742;16.962;2023-07-16T12:42:37;3.70;;;1.50;;
73678;SDS011;61978;52.742;16.962;2023-07-16T12:45:03;3.70;;;1.50;;
73678;SDS011;61978;52.742;16.962;2023-07-16T12:47:29;4.10;;;1.20;;
73678;SDS011;61978;52.742;16.962;2023-07-16T12:49:55;6.30;;;1.40;;
73678;SDS011;61978;52.742;16.962;2023-07-16T12:52:21;1.50;;;1.20;;
73678;SDS011;61978;52.742;16.962;2023-07-16T12:54:46;1.30;;;1.20;;
73678;SDS011;61978;52.742;16.962;2023-07-16T12:57:12;1.40;;;1.30;;
73678;SDS011;61978;52.742;16.962;2023-07-16T12:59:37;1.70;;;1.30;;
73678;SDS011;61978;52.742;16.962;2023-07-16T13:02:03;1.40;;;1.30;;
73678;SDS011;61978;52.742;16.962;2023-07-16T13:04:29;1.40;;;1.30;;
73678;SDS011;61978;52.742;16.962;2023-07-16T13:06:55;1.40;;;1.20;;
73678;SDS011;61978;52.742;16.962;2023-07-16T13:09:22;2.30;;;1.00;;
73678;SDS011;61978;52.742;16.962;2023-07-16T13:11:48;3.10;;;1.40;;
73678;SDS011;61978;52.742;16.962;2023-07-16T13:14:14;12.90;;;1.70;;
73678;SDS011;61978;52.742;16.962;2023-07-16T13:16:40;3.40;;;1.30;;
73678;SDS011;61978;52.742;16.962;2023-07-16T13:19:06;3.40;;;1.50;;
73678;SDS011;61978;52.742;16.962;2023-07-16T13:21:32;2.80;;;1.50;;
73678;SDS011;61978;52.742;16.962;2023-07-16T13:23:58;1.80;;;1.30;;
73678;SDS011;61978;52.742;16.962;2023-07-16T13:26:24;1.90;;;1.80;;
73678;SDS011;61978;52.742;16.962;2023-07-16T13:28:49;2.40;;;1.20;;
73678;SDS011;61978;52.742;16.962;2023-07-16T13:31:15;2.00;;;1.30;;
73678;SDS011;61978;52.742;16.962;2023-07-16T13:33:41;12.10;;;1.70;;
73678;SDS011;61978;52.742;16.962;2023-07-16T13:36:07;1.30;;;1.20;;
73678;SDS011;61978;52.742;16.962;2023-07-16T13:38:33;3.00;;;1.30;;
73678;SDS011;61978;52.742;16.962;2023-07-16T13:40:58;1.60;;;1.50;;
73678;SDS011;61978;52.742;16.962;2023-07-16T13:43:24;3.10;;;1.60;;
73678;SDS011;61978;52.742;16.962;2023-07-16T13:45:50;2.20;;;1.20;;
73678;SDS011;61978;52.742;16.962;2023-07-16T13:48:17;1.20;;;1.10;;
73678;SDS011;61978;52.742;16.962;2023-07-16T13:50:44;4.20;;;1.20;;
73678;SDS011;61978;52.742;16.962;2023-07-16T13:53:09;5.60;;;1.50;;
73678;SDS011;61978;52.742;16.962;2023-07-16T13:55:35;1.20;;;1.10;;
73678;SDS011;61978;52.742;16.962;2023-07-16T13:58:01;2.10;;;1.30;;
73678;SDS011;61978;52.742;16.962;2023-07-16T14:00:27;3.90;;;1.60;;
73678;SDS011;61978;52.742;16.962;2023-07-16T14:02:53;1.60;;;1.20;;
73678;SDS011;61978;52.742;16.962;2023-07-16T14:05:19;2.20;;;1.20;;
73678;SDS011;61978;52.742;16.962;2023-07-16T14:07:46;2.00;;;1.30;;
73678;SDS011;61978;52.742;16.962;2023-07-16T14:10:12;1.70;;;1.50;;
73678;SDS011;61978;52.742;16.962;2023-07-16T14:12:38;2.40;;;1.40;;
73678;SDS011;61978;52.742;16.962;2023-07-16T14:15:04;1.60;;;1.40;;
73678;SDS011;61978;52.742;16.962;2023-07-16T14:17:30;1.60;;;1.50;;
73678;SDS011;61978;52.742;16.962;2023-07-16T14:19:56;2.60;;;1.60;;
73678;SDS011;61978;52.742;16.962;2023-07-16T14:22:22;1.50;;;1.30;;
73678;SDS011;61978;52.742;16.962;2023-07-16T14:24:51;1.30;;;1.20;;
73678;SDS011;61978;52.742;16.962;2023-07-16T14:27:17;4.00;;;1.30;;
73678;SDS011;61978;52.742;16.962;2023-07-16T14:29:45;2.80;;;1.70;;
73678;SDS011;61978;52.742;16.962;2023-07-16T14:32:14;1.60;;;1.40;;